Time;durP1;ratioP1;P1;durP2;ratioP2;P2;SDS_P1;SDS_P2;PMS_P1;PMS_P2;Temp;Humidity;BMP_temperature;BMP_pressure;BME280_temperature;BME280_humidity;BME280_pressure;Samples;Min_cycle;Max_cycle;Signal;HPM_P1;HPM_P2
2023/12/03 00:00:43;;;;;;;38.72;14.02;;;;;;;-148.88;100.00;-17125.47;5074137;28;20021;-82
2023/12/03 00:03:11;;;;;;;40.28;14.95;;;;;;;-148.88;100.00;-17125.47;5074747;28;20111;-81
2023/12/03 00:05:37;;;;;;;37.28;13.27;;;;;;;-148.88;100.00;-17125.47;5075050;28;20038;-81
2023/12/03 00:08:02;;;;;;;41.88;14.98;;;;;;;-148.88;100.00;-17125.47;5074028;28;20028;-81
2023/12/03 00:10:28;;;;;;;46.20;15.65;;;;;;;-148.88;100.00;-17125.47;5072684;28;20033;-82
2023/12/03 00:12:53;;;;;;;41.97;15.93;;;;;;;-148.88;100.00;-17125.47;5073126;28;20052;-82
2023/12/03 00:15:19;;;;;;;36.30;13.57;;;;;;;-148.88;100.00;-17125.47;5074027;28;20031;-81
2023/12/03 00:17:44;;;;;;;41.42;15.75;;;;;;;-148.88;100.00;-17125.47;5073704;28;20078;-82
2023/12/03 00:20:10;;;;;;;40.10;13.88;;;;;;;-148.88;100.00;-17125.47;5073007;28;20070;-82
2023/12/03 00:22:36;;;;;;;40.63;14.90;;;;;;;-148.88;100.00;-17125.47;5074600;28;20040;-82
2023/12/03 00:25:02;;;;;;;45.17;15.23;;;;;;;-148.88;100.00;-17125.47;5075908;28;20394;-81
2023/12/03 00:27:27;;;;;;;42.15;14.63;;;;;;;-148.88;100.00;-17125.47;5072837;28;20037;-81
2023/12/03 00:29:52;;;;;;;46.72;15.63;;;;;;;-148.88;100.00;-17125.47;5074386;28;20017;-81
2023/12/03 00:32:18;;;;;;;42.78;15.10;;;;;;;-148.88;100.00;-17125.47;5075552;28;20020;-81
2023/12/03 00:34:43;;;;;;;44.55;14.63;;;;;;;-148.88;100.00;-17125.47;5073189;28;20418;-82
2023/12/03 00:37:08;;;;;;;49.38;16.20;;;;;;;-148.88;100.00;-17125.47;5074443;28;20097;-82
2023/12/03 00:39:34;;;;;;;38.78;13.98;;;;;;;-148.88;100.00;-17125.47;5074751;28;20162;-82
2023/12/03 00:41:59;;;;;;;50.67;15.85;;;;;;;-148.88;100.00;-17125.47;5074187;28;20036;-82
2023/12/03 00:44:24;;;;;;;50.65;17.10;;;;;;;-148.88;100.00;-17125.47;5073574;28;20036;-82
2023/12/03 00:46:50;;;;;;;49.15;16.70;;;;;;;-148.88;100.00;-17125.47;5072303;28;20032;-82
2023/12/03 00:49:15;;;;;;;43.75;16.88;;;;;;;-148.88;100.00;-17125.47;5073422;28;20115;-82
2023/12/03 00:51:40;;;;;;;52.08;17.45;;;;;;;-148.88;100.00;-17125.47;5074219;28;20035;-81
2023/12/03 00:54:07;;;;;;;47.97;15.32;;;;;;;-148.88;100.00;-17125.47;5072416;28;20461;-82
2023/12/03 00:56:32;;;;;;;52.60;16.23;;;;;;;-148.88;100.00;-17125.47;5073669;28;20506;-81
2023/12/03 00:58:57;;;;;;;49.83;17.05;;;;;;;-148.88;100.00;-17125.47;5072616;28;20111;-81
2023/12/03 01:01:23;;;;;;;46.13;15.85;;;;;;;-148.88;100.00;-17125.47;5073411;28;20463;-80
2023/12/03 01:03:48;;;;;;;48.70;17.83;;;;;;;-148.88;100.00;-17125.47;5073842;28;20048;-81
2023/12/03 01:06:13;;;;;;;50.45;16.65;;;;;;;-148.88;100.00;-17125.47;5079055;28;20020;-82
2023/12/03 01:08:39;;;;;;;59.00;16.48;;;;;;;-148.88;100.00;-17125.47;5078736;28;20025;-82
2023/12/03 01:11:05;;;;;;;45.38;17.92;;;;;;;-148.88;100.00;-17125.47;5079207;28;20118;-82
2023/12/03 01:13:30;;;;;;;51.83;17.80;;;;;;;-148.88;100.00;-17125.47;5079241;28;20485;-81
2023/12/03 01:15:56;;;;;;;47.85;16.73;;;;;;;-148.88;100.00;-17125.47;5078861;28;20032;-81
2023/12/03 01:18:21;;;;;;;55.50;18.17;;;;;;;-148.88;100.00;-17125.47;5076873;28;20086;-81
2023/12/03 01:20:46;;;;;;;51.00;17.00;;;;;;;-148.88;100.00;-17125.47;5077296;28;20116;-81
2023/12/03 01:23:12;;;;;;;49.17;17.55;;;;;;;-148.88;100.00;-17125.47;5077534;28;20025;-81
2023/12/03 01:25:37;;;;;;;59.17;17.80;;;;;;;-148.88;100.00;-17125.47;5077444;28;20068;-81
2023/12/03 01:28:03;;;;;;;51.40;18.10;;;;;;;-148.88;100.00;-17125.47;5077152;28;20024;-81
2023/12/03 01:30:28;;;;;;;54.83;19.98;;;;;;;-148.88;100.00;-17125.47;5077733;28;20060;-81
2023/12/03 01:32:53;;;;;;;50.70;17.10;;;;;;;-148.88;100.00;-17125.47;5078000;28;20028;-82
2023/12/03 01:35:19;;;;;;;50.25;17.73;;;;;;;-148.88;100.00;-17125.47;5077785;28;20035;-81
2023/12/03 01:37:44;;;;;;;52.25;18.13;;;;;;;-148.88;100.00;-17125.47;5077959;28;20028;-81
2023/12/03 01:40:10;;;;;;;59.63;20.17;;;;;;;-148.88;100.00;-17125.47;5078622;28;20017;-81
2023/12/03 01:42:35;;;;;;;58.45;19.63;;;;;;;-148.88;100.00;-17125.47;5076664;28;20031;-81
2023/12/03 01:45:01;;;;;;;53.85;16.73;;;;;;;-148.88;100.00;-17125.47;5078904;28;20024;-82
2023/12/03 01:47:28;;;;;;;54.38;17.70;;;;;;;-148.88;100.00;-17125.47;5076718;28;20051;-82
2023/12/03 01:49:54;;;;;;;52.05;17.20;;;;;;;-148.88;100.00;-17125.47;5077401;28;20031;-82
2023/12/03 01:52:19;;;;;;;51.38;19.05;;;;;;;-148.88;100.00;-17125.47;5076550;28;20021;-81
2023/12/03 01:54:45;;;;;;;49.15;18.15;;;;;;;-148.88;100.00;-17125.47;5077442;28;20115;-82
2023/12/03 01:57:12;;;;;;;65.22;20.48;;;;;;;-148.88;100.00;-17125.47;5076372;28;20024;-81
2023/12/03 01:59:37;;;;;;;58.97;20.00;;;;;;;-148.88;100.00;-17125.47;5076272;28;20028;-81
2023/12/03 02:02:03;;;;;;;62.97;19.70;;;;;;;-148.88;100.00;-17125.47;5076693;28;20031;-81
2023/12/03 02:04:29;;;;;;;66.85;20.48;;;;;;;-148.88;100.00;-17125.47;5076668;28;20032;-82
2023/12/03 02:06:55;;;;;;;65.43;20.17;;;;;;;-148.88;100.00;-17125.47;5076790;28;20471;-81
2023/12/03 02:09:20;;;;;;;47.38;17.30;;;;;;;-148.88;100.00;-17125.47;5077216;28;20491;-81
2023/12/03 02:11:46;;;;;;;53.67;19.65;;;;;;;-148.88;100.00;-17125.47;5076834;28;20028;-82
2023/12/03 02:14:11;;;;;;;47.90;18.95;;;;;;;-148.88;100.00;-17125.47;5076634;28;20099;-82
2023/12/03 02:16:37;;;;;;;55.17;18.77;;;;;;;-148.88;100.00;-17125.47;5075126;28;20024;-82
2023/12/03 02:19:02;;;;;;;42.90;17.60;;;;;;;-148.88;100.00;-17125.47;5077170;28;20052;-82
2023/12/03 02:21:30;;;;;;;54.10;18.70;;;;;;;-148.88;100.00;-17125.47;5077575;28;20028;-82
2023/12/03 02:23:56;;;;;;;53.17;19.42;;;;;;;-148.88;100.00;-17125.47;5078242;28;20028;-82
2023/12/03 02:26:21;;;;;;;50.67;18.73;;;;;;;-148.88;100.00;-17125.47;5075708;28;20383;-83
2023/12/03 02:28:47;;;;;;;54.80;19.10;;;;;;;-148.88;100.00;-17125.47;5077453;28;20174;-82
2023/12/03 02:31:14;;;;;;;50.20;17.20;;;;;;;-148.88;100.00;-17125.47;5075930;28;20044;-82
2023/12/03 02:33:41;;;;;;;48.75;18.25;;;;;;;-148.88;100.00;-17125.47;5077710;28;20098;-82
2023/12/03 02:36:06;;;;;;;50.20;18.33;;;;;;;-148.88;100.00;-17125.47;5077400;28;20494;-81
2023/12/03 02:38:32;;;;;;;56.28;18.15;;;;;;;-148.88;100.00;-17125.47;5076969;28;20029;-81
2023/12/03 02:40:58;;;;;;;42.90;17.42;;;;;;;-148.88;100.00;-17125.47;5077041;28;20083;-82
2023/12/03 02:43:24;;;;;;;44.95;17.40;;;;;;;-148.88;100.00;-17125.47;5075667;28;20021;-82
2023/12/03 02:45:49;;;;;;;48.35;18.05;;;;;;;-148.88;100.00;-17125.47;5077530;28;20027;-82
2023/12/03 02:48:15;;;;;;;52.47;18.88;;;;;;;-148.88;100.00;-17125.47;5078047;28;20380;-82
2023/12/03 02:50:40;;;;;;;54.90;17.80;;;;;;;-148.88;100.00;-17125.47;5077305;28;20545;-82
2023/12/03 02:53:05;;;;;;;45.88;17.05;;;;;;;-148.88;100.00;-17125.47;5077291;28;20021;-82
2023/12/03 02:55:31;;;;;;;48.45;18.02;;;;;;;-148.88;100.00;-17125.47;5077652;28;20055;-82
2023/12/03 02:57:56;;;;;;;52.00;17.67;;;;;;;-148.88;100.00;-17125.47;5075691;28;20031;-82
2023/12/03 03:00:21;;;;;;;51.30;16.95;;;;;;;-148.88;100.00;-17125.47;5074154;28;20028;-81
2023/12/03 03:02:47;;;;;;;51.17;17.38;;;;;;;-148.88;100.00;-17125.47;5075191;28;20029;-81
2023/12/03 03:05:12;;;;;;;51.45;17.73;;;;;;;-148.88;100.00;-17125.47;5076191;28;20032;-82
2023/12/03 03:07:37;;;;;;;49.03;16.50;;;;;;;-148.88;100.00;-17125.47;5076289;28;20154;-82
2023/12/03 03:10:03;;;;;;;48.30;17.02;;;;;;;-148.88;100.00;-17125.47;5076669;28;20471;-82
2023/12/03 03:12:29;;;;;;;50.95;16.60;;;;;;;-148.88;100.00;-17125.47;5075646;28;20027;-82
2023/12/03 03:14:54;;;;;;;51.85;17.77;;;;;;;-148.88;100.00;-17125.47;5080942;28;20028;-80
2023/12/03 03:17:19;;;;;;;53.65;19.52;;;;;;;-148.88;100.00;-17125.47;5079147;28;20059;-82
2023/12/03 03:19:45;;;;;;;48.75;17.85;;;;;;;-148.88;100.00;-17125.47;5081763;28;20043;-81
2023/12/03 03:22:12;;;;;;;47.03;16.90;;;;;;;-148.88;100.00;-17125.47;5079393;28;20031;-82
2023/12/03 03:24:37;;;;;;;48.90;16.52;;;;;;;-148.88;100.00;-17125.47;5079094;28;20455;-82
2023/12/03 03:27:03;;;;;;;52.22;17.13;;;;;;;-148.88;100.00;-17125.47;5078961;28;20048;-82
2023/12/03 03:29:28;;;;;;;51.80;17.25;;;;;;;-148.88;100.00;-17125.47;5079032;28;20364;-82
2023/12/03 03:31:53;;;;;;;48.28;18.63;;;;;;;-148.88;100.00;-17125.47;5080443;28;20028;-82
2023/12/03 03:34:19;;;;;;;44.33;16.60;;;;;;;-148.88;100.00;-17125.47;5075575;28;20027;-81
2023/12/03 03:36:44;;;;;;;48.83;17.83;;;;;;;-148.88;100.00;-17125.47;5074289;28;20044;-82
2023/12/03 03:39:09;;;;;;;57.53;18.50;;;;;;;-148.88;100.00;-17125.47;5073321;28;20032;-81
2023/12/03 03:41:35;;;;;;;51.83;18.55;;;;;;;-148.88;100.00;-17125.47;5074890;28;20043;-82
2023/12/03 03:44:00;;;;;;;52.63;18.52;;;;;;;-148.88;100.00;-17125.47;5077437;28;20025;-82
2023/12/03 03:46:25;;;;;;;48.17;17.58;;;;;;;-148.88;100.00;-17125.47;5077179;28;20028;-82
2023/12/03 03:48:51;;;;;;;41.35;16.02;;;;;;;-148.88;100.00;-17125.47;5078555;28;20035;-82
2023/12/03 03:51:16;;;;;;;47.58;17.08;;;;;;;-148.88;100.00;-17125.47;5077867;28;20023;-82
2023/12/03 03:53:41;;;;;;;51.00;17.17;;;;;;;-148.88;100.00;-17125.47;5078105;28;20035;-82
2023/12/03 03:56:10;;;;;;;48.25;19.15;;;;;;;-148.88;100.00;-17125.47;5079350;28;20028;-82
2023/12/03 03:58:36;;;;;;;50.22;17.48;;;;;;;-148.88;100.00;-17125.47;5078321;28;20123;-82
2023/12/03 04:01:07;;;;;;;56.78;17.63;;;;;;;-148.88;100.00;-17125.47;5079173;28;20059;-82
2023/12/03 04:03:33;;;;;;;51.08;18.00;;;;;;;-148.88;100.00;-17125.47;5079389;28;20127;-82
2023/12/03 04:06:06;;;;;;;56.67;18.30;;;;;;;-148.88;100.00;-17125.47;5074500;28;20063;-82
2023/12/03 04:08:32;;;;;;;54.58;18.05;;;;;;;-148.88;100.00;-17125.47;5077772;28;20135;-81
2023/12/03 04:11:01;;;;;;;58.38;19.88;;;;;;;-148.88;100.00;-17125.47;5073721;28;20033;-81
2023/12/03 04:13:26;;;;;;;57.28;17.88;;;;;;;-148.88;100.00;-17125.47;5073885;28;20082;-82
2023/12/03 04:15:52;;;;;;;47.88;18.50;;;;;;;-148.88;100.00;-17125.47;5073962;28;20032;-81
2023/12/03 04:18:17;;;;;;;51.85;18.95;;;;;;;-148.88;100.00;-17125.47;5072406;28;20394;-81
2023/12/03 04:20:42;;;;;;;50.80;17.63;;;;;;;-148.88;100.00;-17125.47;5073922;28;20032;-81
2023/12/03 04:23:07;;;;;;;48.47;16.30;;;;;;;-148.88;100.00;-17125.47;5073701;28;20024;-81
2023/12/03 04:25:33;;;;;;;50.55;18.05;;;;;;;-148.88;100.00;-17125.47;5072289;28;20434;-81
2023/12/03 04:27:58;;;;;;;51.28;18.13;;;;;;;-148.88;100.00;-17125.47;5073654;28;20383;-81
2023/12/03 04:30:24;;;;;;;55.40;17.13;;;;;;;-148.88;100.00;-17125.47;5073975;28;20024;-80
2023/12/03 04:32:49;;;;;;;61.78;18.83;;;;;;;-148.88;100.00;-17125.47;5074112;28;20031;-79
2023/12/03 04:35:14;;;;;;;63.53;18.80;;;;;;;-148.88;100.00;-17125.47;5074015;28;20403;-80
2023/12/03 04:37:40;;;;;;;48.90;17.52;;;;;;;-148.88;100.00;-17125.47;5073741;28;20471;-80
2023/12/03 04:40:06;;;;;;;60.17;19.27;;;;;;;-148.88;100.00;-17125.47;5072547;28;20032;-79
2023/12/03 04:42:31;;;;;;;58.78;18.17;;;;;;;-148.88;100.00;-17125.47;5073835;28;20024;-80
2023/12/03 04:44:57;;;;;;;54.10;20.20;;;;;;;-148.88;100.00;-17125.47;5072872;28;20025;-80
2023/12/03 04:47:22;;;;;;;56.78;19.23;;;;;;;-148.88;100.00;-17125.47;5073575;28;20483;-79
2023/12/03 04:49:47;;;;;;;58.58;19.05;;;;;;;-148.88;100.00;-17125.47;5074083;28;20027;-79
2023/12/03 04:52:13;;;;;;;58.95;19.27;;;;;;;-148.88;100.00;-17125.47;5074717;28;20072;-79
2023/12/03 04:54:38;;;;;;;51.08;19.63;;;;;;;-148.88;100.00;-17125.47;5073916;28;20459;-80
2023/12/03 04:57:04;;;;;;;51.67;17.88;;;;;;;-148.88;100.00;-17125.47;5072219;28;20438;-81
2023/12/03 04:59:29;;;;;;;53.58;19.20;;;;;;;-148.88;100.00;-17125.47;5073842;28;20046;-81
2023/12/03 05:01:54;;;;;;;56.88;18.58;;;;;;;-148.88;100.00;-17125.47;5072185;28;20021;-81
2023/12/03 05:04:21;;;;;;;48.70;17.70;;;;;;;-148.88;100.00;-17125.47;5073644;28;20026;-80
2023/12/03 05:06:47;;;;;;;52.30;17.98;;;;;;;-148.88;100.00;-17125.47;5073670;28;20546;-81
2023/12/03 05:09:12;;;;;;;52.38;17.63;;;;;;;-148.88;100.00;-17125.47;5074880;28;20104;-80
2023/12/03 05:11:40;;;;;;;53.53;17.88;;;;;;;-148.88;100.00;-17125.47;5074897;28;20527;-81
2023/12/03 05:14:05;;;;;;;55.92;18.48;;;;;;;-148.88;100.00;-17125.47;5074341;28;20035;-80
2023/12/03 05:16:30;;;;;;;51.67;19.60;;;;;;;-148.88;100.00;-17125.47;5073954;28;20020;-81
2023/12/03 05:18:56;;;;;;;47.70;16.85;;;;;;;-148.88;100.00;-17125.47;5073466;28;20032;-79
2023/12/03 05:21:21;;;;;;;47.13;17.67;;;;;;;-148.88;100.00;-17125.47;5072564;28;20088;-80
2023/12/03 05:23:46;;;;;;;49.80;16.35;;;;;;;-148.88;100.00;-17125.47;5073704;28;20051;-80
2023/12/03 05:26:12;;;;;;;59.15;17.85;;;;;;;-148.88;100.00;-17125.47;5073827;28;20424;-80
2023/12/03 05:28:37;;;;;;;47.80;17.95;;;;;;;-148.88;100.00;-17125.47;5073866;28;20390;-80
2023/12/03 05:31:04;;;;;;;56.00;17.70;;;;;;;-148.88;100.00;-17125.47;5073781;28;20032;-81
2023/12/03 05:33:30;;;;;;;51.88;17.00;;;;;;;-148.88;100.00;-17125.47;5073666;28;20366;-81
2023/12/03 05:35:55;;;;;;;52.78;18.33;;;;;;;-148.88;100.00;-17125.47;5073641;28;20028;-81
2023/12/03 05:38:21;;;;;;;56.38;18.58;;;;;;;-148.88;100.00;-17125.47;5075432;28;20029;-81
2023/12/03 05:40:46;;;;;;;47.53;18.35;;;;;;;-148.88;100.00;-17125.47;5072380;28;20086;-81
2023/12/03 05:43:13;;;;;;;50.17;16.10;;;;;;;-148.88;100.00;-17125.47;5073669;28;20032;-81
2023/12/03 05:45:38;;;;;;;47.08;17.13;;;;;;;-148.88;100.00;-17125.47;5072166;28;20032;-81
2023/12/03 05:48:04;;;;;;;54.35;18.92;;;;;;;-148.88;100.00;-17125.47;5075725;28;20391;-81
2023/12/03 05:50:29;;;;;;;54.05;18.70;;;;;;;-148.88;100.00;-17125.47;5074569;28;20020;-81
2023/12/03 05:52:55;;;;;;;56.85;19.55;;;;;;;-148.88;100.00;-17125.47;5077016;28;20016;-80
2023/12/03 05:55:20;;;;;;;50.38;20.33;;;;;;;-148.88;100.00;-17125.47;5076764;28;20021;-80
2023/12/03 05:57:46;;;;;;;48.60;19.05;;;;;;;-148.88;100.00;-17125.47;5077585;28;20029;-80
2023/12/03 06:00:11;;;;;;;59.17;17.58;;;;;;;-148.88;100.00;-17125.47;5077076;28;20024;-80
2023/12/03 06:02:37;;;;;;;54.83;18.67;;;;;;;-148.88;100.00;-17125.47;5077292;28;20478;-80
2023/12/03 06:05:02;;;;;;;54.55;18.83;;;;;;;-148.88;100.00;-17125.47;5077529;28;20033;-80
2023/12/03 06:07:28;;;;;;;55.95;18.23;;;;;;;-148.88;100.00;-17125.47;5077355;28;20065;-79
2023/12/03 06:09:53;;;;;;;64.07;19.95;;;;;;;-148.88;100.00;-17125.47;5077660;28;20368;-80
2023/12/03 06:12:18;;;;;;;50.80;17.15;;;;;;;-148.88;100.00;-17125.47;5076748;28;20052;-81
2023/12/03 06:14:44;;;;;;;54.10;18.52;;;;;;;-148.88;100.00;-17125.47;5076912;28;20502;-81
2023/12/03 06:17:09;;;;;;;56.95;18.55;;;;;;;-148.88;100.00;-17125.47;5075222;28;20399;-80
2023/12/03 06:19:34;;;;;;;45.75;17.90;;;;;;;-148.88;100.00;-17125.47;5076917;28;20028;-80
2023/12/03 06:22:00;;;;;;;50.58;18.70;;;;;;;-148.88;100.00;-17125.47;5077186;28;20475;-81
2023/12/03 06:24:26;;;;;;;53.13;17.95;;;;;;;-148.88;100.00;-17125.47;5076925;28;20024;-80
2023/12/03 06:26:51;;;;;;;51.03;17.35;;;;;;;-148.88;100.00;-17125.47;5077076;28;20021;-80
2023/12/03 06:29:16;;;;;;;55.70;18.75;;;;;;;-148.88;100.00;-17125.47;5077614;28;20016;-80
2023/12/03 06:31:42;;;;;;;53.33;18.08;;;;;;;-148.88;100.00;-17125.47;5075591;28;20429;-80
2023/12/03 06:34:07;;;;;;;46.10;16.30;;;;;;;-148.88;100.00;-17125.47;5077188;28;20052;-80
2023/12/03 06:36:32;;;;;;;52.88;17.75;;;;;;;-148.88;100.00;-17125.47;5076364;28;20496;-80
2023/12/03 06:38:58;;;;;;;52.22;16.27;;;;;;;-148.88;100.00;-17125.47;5075359;28;20443;-80
2023/12/03 06:41:23;;;;;;;49.80;16.33;;;;;;;-148.88;100.00;-17125.47;5077202;28;20073;-80
2023/12/03 06:43:48;;;;;;;48.90;15.15;;;;;;;-148.88;100.00;-17125.47;5076747;28;20028;-81
2023/12/03 06:46:14;;;;;;;41.85;14.18;;;;;;;-148.88;100.00;-17125.47;5076575;28;20027;-80
2023/12/03 06:48:42;;;;;;;42.53;14.80;;;;;;;-148.88;100.00;-17125.47;5077012;28;20071;-80
2023/12/03 06:51:08;;;;;;;39.10;13.68;;;;;;;-148.88;100.00;-17125.47;5077358;28;20028;-80
2023/12/03 06:53:34;;;;;;;44.28;14.38;;;;;;;-148.88;100.00;-17125.47;5075846;28;20024;-80
2023/12/03 06:55:59;;;;;;;43.67;13.90;;;;;;;-148.88;100.00;-17125.47;5077376;28;20020;-80
2023/12/03 06:58:25;;;;;;;40.72;16.35;;;;;;;-148.88;100.00;-17125.47;5076548;28;20500;-80
2023/12/03 07:00:50;;;;;;;49.78;15.45;;;;;;;-148.88;100.00;-17125.47;5075962;28;20025;-80
2023/12/03 07:03:16;;;;;;;40.63;14.32;;;;;;;-148.88;100.00;-17125.47;5076471;28;20086;-80
2023/12/03 07:05:42;;;;;;;42.63;13.95;;;;;;;-148.88;100.00;-17125.47;5076671;28;20420;-79
2023/12/03 07:08:07;;;;;;;38.92;14.43;;;;;;;-148.88;100.00;-17125.47;5076560;28;20370;-80
2023/12/03 07:10:33;;;;;;;43.95;13.60;;;;;;;-148.88;100.00;-17125.47;5074379;28;20525;-80
2023/12/03 07:12:58;;;;;;;42.28;14.55;;;;;;;-148.88;100.00;-17125.47;5074660;28;20487;-80
2023/12/03 07:15:23;;;;;;;46.40;14.20;;;;;;;-148.88;100.00;-17125.47;5076697;28;20099;-80
2023/12/03 07:17:49;;;;;;;40.33;12.98;;;;;;;-148.88;100.00;-17125.47;5076174;28;20032;-80
2023/12/03 07:20:14;;;;;;;38.78;13.57;;;;;;;-148.88;100.00;-17125.47;5075031;28;20048;-80
2023/12/03 07:22:40;;;;;;;38.63;14.10;;;;;;;-148.88;100.00;-17125.47;5076362;28;20024;-80
2023/12/03 07:25:06;;;;;;;31.92;12.25;;;;;;;-148.88;100.00;-17125.47;5076230;28;20093;-81
2023/12/03 07:27:31;;;;;;;37.28;13.20;;;;;;;-148.88;100.00;-17125.47;5074906;28;20028;-80
2023/12/03 07:29:57;;;;;;;43.00;14.55;;;;;;;-148.88;100.00;-17125.47;5076428;28;20433;-80
2023/12/03 07:32:23;;;;;;;44.50;14.10;;;;;;;-148.88;100.00;-17125.47;5076169;28;20024;-81
2023/12/03 07:34:49;;;;;;;35.22;13.02;;;;;;;-148.88;100.00;-17125.47;5075988;28;20024;-80
2023/12/03 07:37:14;;;;;;;41.95;13.70;;;;;;;-148.88;100.00;-17125.47;5075873;28;20036;-81
2023/12/03 07:39:40;;;;;;;44.15;13.52;;;;;;;-148.88;100.00;-17125.47;5075816;28;20036;-81
2023/12/03 07:42:06;;;;;;;40.63;12.45;;;;;;;-148.88;100.00;-17125.47;5076057;28;20052;-80
2023/12/03 07:44:32;;;;;;;35.30;11.65;;;;;;;-148.88;100.00;-17125.47;5075475;28;20029;-80
2023/12/03 07:46:58;;;;;;;47.28;12.65;;;;;;;-148.88;100.00;-17125.47;5075683;28;20031;-80
2023/12/03 07:49:23;;;;;;;39.65;13.77;;;;;;;-148.88;100.00;-17125.47;5075655;28;20016;-80
2023/12/03 07:51:49;;;;;;;37.42;12.05;;;;;;;-148.88;100.00;-17125.47;5075399;28;20048;-80
2023/12/03 07:54:15;;;;;;;37.38;12.85;;;;;;;-148.88;100.00;-17125.47;5075798;28;20360;-81
2023/12/03 07:56:41;;;;;;;36.63;12.82;;;;;;;-148.88;100.00;-17125.47;5075423;28;20024;-80
2023/12/03 07:59:07;;;;;;;34.00;10.65;;;;;;;-148.88;100.00;-17125.47;5074286;28;20344;-81
2023/12/03 08:01:33;;;;;;;37.00;12.52;;;;;;;-148.88;100.00;-17125.47;5073329;28;20108;-81
2023/12/03 08:03:58;;;;;;;39.10;13.55;;;;;;;-148.88;100.00;-17125.47;5073804;28;20052;-81
2023/12/03 08:06:24;;;;;;;41.65;12.93;;;;;;;-148.88;100.00;-17125.47;5073059;28;20119;-80
2023/12/03 08:08:51;;;;;;;34.55;12.07;;;;;;;-148.88;100.00;-17125.47;5071432;28;20023;-81
2023/12/03 08:11:17;;;;;;;38.50;12.45;;;;;;;-148.88;100.00;-17125.47;5075485;28;20027;-81
2023/12/03 08:13:42;;;;;;;34.92;11.63;;;;;;;-148.88;100.00;-17125.47;5071471;28;20044;-81
2023/12/03 08:16:08;;;;;;;35.95;12.13;;;;;;;-148.88;100.00;-17125.47;5071905;28;20032;-81
2023/12/03 08:18:34;;;;;;;37.28;12.18;;;;;;;-148.88;100.00;-17125.47;5072502;28;20055;-80
2023/12/03 08:20:59;;;;;;;35.63;13.13;;;;;;;-148.88;100.00;-17125.47;5073764;28;20032;-81
2023/12/03 08:23:27;;;;;;;32.70;10.93;;;;;;;-148.88;100.00;-17125.47;5074766;28;20024;-80
2023/12/03 08:25:53;;;;;;;38.67;12.32;;;;;;;-148.88;100.00;-17125.47;5073651;28;20036;-84
2023/12/03 08:28:18;;;;;;;40.60;13.65;;;;;;;-148.88;100.00;-17125.47;5074474;28;20016;-84
2023/12/03 08:30:44;;;;;;;36.95;13.15;;;;;;;-148.88;100.00;-17125.47;5074017;28;20054;-84
2023/12/03 08:33:09;;;;;;;46.08;13.45;;;;;;;-148.88;100.00;-17125.47;5074724;28;20107;-83
2023/12/03 08:35:35;;;;;;;40.25;13.20;;;;;;;-148.88;100.00;-17125.47;5073945;28;20543;-83
2023/12/03 08:38:00;;;;;;;42.05;14.02;;;;;;;-148.88;100.00;-17125.47;5073945;28;20025;-82
2023/12/03 08:40:26;;;;;;;36.20;13.73;;;;;;;-148.88;100.00;-17125.47;5073858;28;20071;-84
2023/12/03 08:42:51;;;;;;;43.92;14.77;;;;;;;-148.88;100.00;-17125.47;5074498;28;20479;-83
2023/12/03 08:45:17;;;;;;;44.05;15.07;;;;;;;-148.88;100.00;-17125.47;5073942;28;20112;-84
2023/12/03 08:47:42;;;;;;;37.10;12.95;;;;;;;-148.88;100.00;-17125.47;5075468;28;20020;-82
2023/12/03 08:50:08;;;;;;;39.47;13.50;;;;;;;-148.88;100.00;-17125.47;5075000;28;20025;-83
2023/12/03 08:52:33;;;;;;;41.40;13.55;;;;;;;-148.88;100.00;-17125.47;5073684;28;20067;-83
2023/12/03 08:55:00;;;;;;;42.80;15.15;;;;;;;-148.88;100.00;-17125.47;5073820;28;20027;-82
2023/12/03 08:57:26;;;;;;;45.72;14.23;;;;;;;-148.88;100.00;-17125.47;5073496;28;20023;-82
2023/12/03 08:59:53;;;;;;;45.42;16.60;;;;;;;-148.88;100.00;-17125.47;5084459;28;20029;-84
2023/12/03 09:02:19;;;;;;;42.53;14.52;;;;;;;-148.88;100.00;-17125.47;5087329;28;20032;-83
2023/12/03 09:04:45;;;;;;;41.05;13.75;;;;;;;-148.88;100.00;-17125.47;5085641;28;20024;-83
2023/12/03 09:07:10;;;;;;;40.42;14.70;;;;;;;-148.88;100.00;-17125.47;5079238;28;20391;-83
2023/12/03 09:09:36;;;;;;;47.10;13.65;;;;;;;-148.88;100.00;-17125.47;5076668;28;20035;-82
2023/12/03 09:12:01;;;;;;;41.90;14.13;;;;;;;-148.88;100.00;-17125.47;5077063;28;20372;-83
2023/12/03 09:14:27;;;;;;;41.60;15.15;;;;;;;-148.88;100.00;-17125.47;5076443;28;20033;-83
2023/12/03 09:16:53;;;;;;;40.65;14.60;;;;;;;-148.88;100.00;-17125.47;5076993;28;20384;-83
2023/12/03 09:19:19;;;;;;;35.33;12.13;;;;;;;-148.88;100.00;-17125.47;5073435;28;20510;-84
2023/12/03 09:21:44;;;;;;;37.97;14.32;;;;;;;-148.88;100.00;-17125.47;5073948;28;20035;-83
2023/12/03 09:24:10;;;;;;;40.45;13.68;;;;;;;-148.88;100.00;-17125.47;5073504;28;20025;-84
2023/12/03 09:26:35;;;;;;;41.30;12.55;;;;;;;-148.88;100.00;-17125.47;5078370;28;20037;-83
2023/12/03 09:29:01;;;;;;;49.75;14.20;;;;;;;-148.88;100.00;-17125.47;5078047;28;20106;-83
2023/12/03 09:31:26;;;;;;;47.75;13.85;;;;;;;-148.88;100.00;-17125.47;5077487;28;20530;-83
2023/12/03 09:33:51;;;;;;;48.08;17.83;;;;;;;-148.88;100.00;-17125.47;5075995;28;20029;-83
2023/12/03 09:36:17;;;;;;;49.95;17.33;;;;;;;-148.88;100.00;-17125.47;5077318;28;20094;-84
2023/12/03 09:38:42;;;;;;;46.70;15.68;;;;;;;-148.88;100.00;-17125.47;5077604;28;20024;-84
2023/12/03 09:41:11;;;;;;;44.53;14.07;;;;;;;-148.88;100.00;-17125.47;5077289;28;20081;-84
2023/12/03 09:43:44;;;;;;;49.45;14.88;;;;;;;-148.88;100.00;-17125.47;5075717;28;20128;-84
2023/12/03 09:46:13;;;;;;;40.88;14.05;;;;;;;-148.88;100.00;-17125.47;5077606;28;20085;-85
2023/12/03 09:48:43;;;;;;;43.40;12.95;;;;;;;-148.88;100.00;-17125.47;5076718;28;20024;-81
2023/12/03 09:51:12;;;;;;;39.92;13.48;;;;;;;-148.88;100.00;-17125.47;5078672;28;20025;-83
2023/12/03 09:53:50;;;;;;;46.35;14.35;;;;;;;-148.88;100.00;-17125.47;5077413;28;20051;-82
2023/12/03 09:56:16;;;;;;;41.35;12.75;;;;;;;-148.88;100.00;-17125.47;5079999;28;20024;-84
2023/12/03 09:58:45;;;;;;;56.80;18.25;;;;;;;-148.88;100.00;-17125.47;5075763;28;20028;-82
2023/12/03 10:01:10;;;;;;;48.13;16.70;;;;;;;-148.88;100.00;-17125.47;5077033;28;20048;-83
2023/12/03 10:03:35;;;;;;;48.72;17.23;;;;;;;-148.88;100.00;-17125.47;5077466;28;20390;-83
2023/12/03 10:06:02;;;;;;;62.25;19.30;;;;;;;-148.88;100.00;-17125.47;5077545;28;20538;-83
2023/12/03 10:08:31;;;;;;;59.25;19.90;;;;;;;-148.88;100.00;-17125.47;5074858;28;20026;-82
2023/12/03 10:11:02;;;;;;;55.63;18.08;;;;;;;-148.88;100.00;-17125.47;5076454;28;20017;-83
2023/12/03 10:13:29;;;;;;;47.97;15.10;;;;;;;-148.88;100.00;-17125.47;5076901;28;20024;-84
2023/12/03 10:15:55;;;;;;;47.78;15.73;;;;;;;-148.88;100.00;-17125.47;5077643;28;20047;-84
2023/12/03 10:18:21;;;;;;;65.10;17.48;;;;;;;-148.88;100.00;-17125.47;5076234;28;20108;-83
2023/12/03 10:20:46;;;;;;;60.45;18.25;;;;;;;-148.88;100.00;-17125.47;5076856;28;20024;-83
2023/12/03 10:23:16;;;;;;;65.50;18.40;;;;;;;-148.88;100.00;-17125.47;5074931;28;20028;-83
2023/12/03 10:25:41;;;;;;;65.88;18.58;;;;;;;-148.88;100.00;-17125.47;5076606;28;20085;-84
2023/12/03 10:28:09;;;;;;;62.25;19.90;;;;;;;-148.88;100.00;-17125.47;5076376;28;20425;-82
2023/12/03 10:30:36;;;;;;;70.15;18.85;;;;;;;-148.88;100.00;-17125.47;5076415;28;20082;-82
2023/12/03 10:33:04;;;;;;;64.57;20.25;;;;;;;-148.88;100.00;-17125.47;5074804;28;20051;-83
2023/12/03 10:35:35;;;;;;;76.40;21.15;;;;;;;-148.88;100.00;-17125.47;5075445;28;20395;-83
2023/12/03 10:38:04;;;;;;;67.07;19.98;;;;;;;-148.88;100.00;-17125.47;5076353;28;20025;-84
2023/12/03 10:40:32;;;;;;;76.85;21.08;;;;;;;-148.88;100.00;-17125.47;5076685;28;20031;-84